Venetie, Alaska
Current Conditions -  °F | °C
As of 1:36 PM on Tuesday 21 Oct 2014 (Local Time) from PFYU Reporting Station
Broken Clouds Broken Clouds  
Wind Chill: 17°   Ceiling: 1600
Heat Index: 28°   Visibility: 9mi
Dew Point: 19°   Wind: 14mph
Humidity: 69%   Direction: 50°NE
Pressure: 29.57"   Gusts: NA
Location:  67.02°N, 146.43°W
Report Text: PFYU 212136Z 05012KT 9SM BKN016 BKN035 M02/M07 A2957 RMK AO1 WX; -SNBR
Loading
Personal Weather Stations






























Interactive Weather Map
Tropical Storm Tracking
New forecast layout! Learn more

10-Day Weather Forecast

Advertisements
Track Severe Weather on mobile